Time;durP1;ratioP1;P1;durP2;ratioP2;P2;SDS_P1;SDS_P2;PMS_P1;PMS_P2;Temp;Humidity;BMP_temperature;BMP_pressure;BME280_temperature;BME280_humidity;BME280_pressure;Samples;Min_cycle;Max_cycle;Signal;HPM_P1;HPM_P2
2022/12/05 00:01:23;;;;;;;52.38;21.20;;;5.20;99.90;;;;;;5016852;28;20079;-76
2022/12/05 00:03:49;;;;;;;;;;;5.20;99.90;;;;;;5015533;28;20029;-77
2022/12/05 00:06:15;;;;;;;51.58;20.65;;;5.20;99.90;;;;;;5015909;28;19932;-74
2022/12/05 00:08:44;;;;;;;44.30;19.95;;;5.20;99.90;;;;;;5016255;28;20041;-75
2022/12/05 00:11:15;;;;;;;51.33;21.00;;;5.20;99.90;;;;;;5015687;28;20072;-76
2022/12/05 00:13:42;;;;;;;54.08;22.15;;;5.10;99.90;;;;;;5014790;28;20117;-74
2022/12/05 00:16:12;;;;;;;51.15;21.45;;;5.10;99.90;;;;;;5015599;28;20029;-78
2022/12/05 00:18:43;;;;;;;50.85;20.80;;;5.10;99.90;;;;;;5014884;28;20492;-75
2022/12/05 00:21:16;;;;;;;50.78;21.13;;;5.10;99.90;;;;;;5015328;28;20459;-76
2022/12/05 00:23:41;;;;;;;52.70;21.48;;;5.10;99.90;;;;;;5031092;28;20022;-77
2022/12/05 00:26:10;;;;;;;53.05;22.50;;;5.10;99.90;;;;;;5015555;28;20030;-77
2022/12/05 00:28:39;;;;;;;52.70;22.80;;;5.10;99.90;;;;;;5014621;28;20018;-77
2022/12/05 00:31:07;;;;;;;53.55;22.65;;;5.10;99.90;;;;;;5014416;28;20104;-78
2022/12/05 00:33:33;;;;;;;59.08;23.30;;;5.00;99.90;;;;;;5030703;28;20125;-78
2022/12/05 00:36:05;;;;;;;61.92;22.48;;;5.00;99.90;;;;;;5015522;28;20423;-75
2022/12/05 00:38:30;;;;;;;55.00;23.50;;;5.00;99.90;;;;;;5015237;28;20048;-76
2022/12/05 00:41:03;;;;;;;54.90;23.17;;;5.00;99.90;;;;;;5014134;28;20094;-76
2022/12/05 00:43:32;;;;;;;57.72;22.80;;;5.00;99.90;;;;;;5015218;28;20037;-77
2022/12/05 00:46:06;;;;;;;55.70;23.80;;;5.00;99.90;;;;;;5014124;28;20034;-76
2022/12/05 00:48:33;;;;;;;53.33;23.05;;;5.00;99.90;;;;;;5016478;28;20057;-79
2022/12/05 00:51:08;;;;;;;64.47;24.50;;;5.00;99.90;;;;;;5018332;28;20037;-77
2022/12/05 00:53:34;;;;;;;54.40;21.98;;;5.00;99.90;;;;;;5025901;28;20029;-74
2022/12/05 00:56:11;;;;;;;52.30;23.10;;;5.00;99.90;;;;;;5027402;28;20061;-78
2022/12/05 00:58:37;;;;;;;60.53;23.13;;;5.00;99.90;;;;;;5023281;28;20053;-75
2022/12/05 01:01:24;;;;;;;51.25;21.63;;;5.10;99.90;;;;;;5021781;28;20034;-78
2022/12/05 01:03:53;;;;;;;65.35;23.45;;;5.10;99.90;;;;;;5020716;28;20060;-80
2022/12/05 01:06:19;;;;;;;61.78;23.77;;;5.10;99.90;;;;;;5016805;28;20026;-76
2022/12/05 01:08:45;;;;;;;56.55;23.60;;;5.10;99.90;;;;;;5016297;28;20050;-76
2022/12/05 01:11:14;;;;;;;59.63;23.05;;;5.10;99.90;;;;;;5016146;28;20037;-77
2022/12/05 01:13:40;;;;;;;67.65;26.15;;;5.10;99.90;;;;;;5017096;28;20033;-72
2022/12/05 01:16:17;;;;;;;62.03;24.58;;;5.00;99.90;;;;;;5018764;28;20030;-78
2022/12/05 01:18:43;;;;;;;59.30;25.00;;;5.00;99.90;;;;;;5022167;28;20064;-74
2022/12/05 01:21:09;;;;;;;56.63;23.25;;;5.00;99.90;;;;;;5025691;28;20018;-77
2022/12/05 01:23:37;;;;;;;56.65;24.52;;;5.00;99.90;;;;;;5026833;28;20037;-75
2022/12/05 01:26:08;;;;;;;60.70;25.67;;;5.10;99.90;;;;;;5027222;28;20026;-76
2022/12/05 01:28:37;;;;;;;55.97;23.75;;;5.10;99.90;;;;;;5026396;28;20037;-78
2022/12/05 01:31:11;;;;;;;67.22;25.20;;;5.10;99.90;;;;;;5041542;28;20026;-76
2022/12/05 01:33:37;;;;;;;63.03;23.50;;;5.10;99.90;;;;;;5023429;28;20487;-76
2022/12/05 01:36:03;;;;;;;53.42;24.08;;;5.10;99.90;;;;;;5025684;28;20041;-76
2022/12/05 01:38:29;;;;;;;57.60;24.25;;;5.00;99.90;;;;;;5026155;28;20113;-77
2022/12/05 01:41:05;;;;;;;53.50;22.63;;;5.00;99.90;;;;;;5025250;28;20058;-76
2022/12/05 01:43:31;;;;;;;66.18;24.13;;;5.10;99.90;;;;;;5024871;28;20026;-77
2022/12/05 01:45:57;;;;;;;61.38;22.92;;;5.00;99.90;;;;;;5025250;28;20037;-75
2022/12/05 01:48:34;;;;;;;59.28;23.75;;;5.00;99.90;;;;;;5024531;28;20030;-77
2022/12/05 01:51:01;;;;;;;57.33;23.65;;;5.10;99.90;;;;;;5040955;28;20026;-76
2022/12/05 01:53:28;;;;;;;58.80;22.92;;;5.20;99.90;;;;;;5025172;28;20033;-74
2022/12/05 01:55:56;;;;;;;60.10;23.70;;;5.20;99.90;;;;;;5025734;28;20061;-76
2022/12/05 01:58:26;;;;;;;62.58;25.60;;;5.20;99.90;;;;;;5024821;28;20029;-77
2022/12/05 02:00:53;;;;;;;69.32;25.23;;;5.20;99.90;;;;;;5025528;28;20096;-75
2022/12/05 02:03:19;;;;;;;64.88;24.75;;;5.20;99.90;;;;;;5023981;28;20430;-76
2022/12/05 02:05:49;;;;;;;62.53;25.35;;;5.20;99.90;;;;;;5024469;28;20041;-75
2022/12/05 02:08:15;;;;;;;60.53;23.17;;;5.10;99.90;;;;;;5025456;28;20022;-77
2022/12/05 02:10:45;;;;;;;67.22;24.45;;;5.10;99.90;;;;;;5024266;28;20297;-75
2022/12/05 02:13:29;;;;;;;56.05;23.63;;;5.20;99.90;;;;;;5024311;28;20022;-76
2022/12/05 02:16:15;;;;;;;64.93;24.35;;;5.20;99.90;;;;;;5023928;28;20018;-76
2022/12/05 02:18:51;;;;;;;58.42;23.85;;;5.20;99.90;;;;;;5020423;28;20049;-76
2022/12/05 02:21:38;;;;;;;62.63;24.85;;;5.20;99.90;;;;;;5024861;28;20084;-77
2022/12/05 02:24:16;;;;;;;55.15;22.65;;;5.20;99.90;;;;;;5025036;28;20115;-77
2022/12/05 02:26:51;;;;;;;59.47;23.60;;;5.20;99.90;;;;;;5027279;28;20041;-74
2022/12/05 02:29:32;;;;;;;58.40;23.90;;;5.20;99.90;;;;;;5025845;28;20332;-74
2022/12/05 02:32:15;;;;;;;69.68;23.52;;;5.20;99.90;;;;;;5024952;28;20021;-77
2022/12/05 02:34:54;;;;;;;64.32;24.95;;;5.20;99.90;;;;;;5023947;28;20038;-76
2022/12/05 02:37:31;;;;;;;61.08;25.45;;;5.20;99.90;;;;;;5023493;28;20164;-74
2022/12/05 02:40:09;;;;;;;65.03;24.98;;;5.30;99.90;;;;;;5024600;28;20022;-75
2022/12/05 02:43:03;;;;;;;62.83;23.77;;;5.30;99.90;;;;;;5022932;28;20058;-75
2022/12/05 02:45:33;;;;;;;61.28;22.95;;;5.30;99.90;;;;;;5024628;28;20114;-76
2022/12/05 02:47:59;;;;;;;62.33;24.63;;;5.30;99.90;;;;;;5023713;28;20081;-77
2022/12/05 02:50:31;;;;;;;62.80;23.95;;;5.30;99.90;;;;;;5024300;28;20026;-75
2022/12/05 02:53:01;;;;;;;58.47;24.85;;;5.20;99.90;;;;;;5022827;28;20061;-78
2022/12/05 02:55:29;;;;;;;65.22;24.10;;;5.20;99.90;;;;;;5017568;28;20026;-76
2022/12/05 02:57:58;;;;;;;66.57;25.05;;;5.20;99.90;;;;;;5017679;28;20049;-77
2022/12/05 03:00:24;;;;;;;63.17;24.02;;;5.20;99.90;;;;;;5017484;28;20491;-77
2022/12/05 03:02:59;;;;;;;57.78;24.60;;;5.20;99.90;;;;;;5016634;28;20033;-78
2022/12/05 03:05:37;;;;;;;52.67;23.27;;;5.20;99.90;;;;;;5016576;28;20026;-76
2022/12/05 03:08:07;;;;;;;56.92;24.40;;;5.20;99.90;;;;;;5017075;28;20049;-77
2022/12/05 03:10:37;;;;;;;60.97;24.02;;;5.20;99.90;;;;;;5016609;28;20066;-76
2022/12/05 03:13:09;;;;;;;54.85;22.55;;;5.20;99.90;;;;;;5017192;28;20053;-76
2022/12/05 03:15:43;;;;;;;58.45;24.02;;;5.20;99.90;;;;;;5016106;28;20320;-76
2022/12/05 03:18:13;;;;;;;58.30;23.38;;;5.20;99.90;;;;;;5016611;28;20447;-75
2022/12/05 03:20:47;;;;;;;58.80;22.20;;;5.20;99.90;;;;;;5017196;28;20115;-74
2022/12/05 03:23:22;;;;;;;59.13;22.90;;;5.10;99.90;;;;;;5032212;28;20176;-77
2022/12/05 03:26:16;;;;;;;63.22;24.23;;;5.10;99.90;;;;;;5032318;28;20309;-77
2022/12/05 03:28:49;;;;;;;59.50;23.55;;;5.20;99.90;;;;;;5016384;28;20079;-76
2022/12/05 03:31:23;;;;;;;60.22;23.15;;;5.20;99.90;;;;;;5016564;28;20053;-76
2022/12/05 03:33:54;;;;;;;54.67;21.98;;;5.20;99.90;;;;;;5016685;28;20032;-77
2022/12/05 03:36:27;;;;;;;50.80;21.95;;;5.20;99.90;;;;;;5016782;28;20032;-75
2022/12/05 03:39:05;;;;;;;65.47;23.70;;;5.20;99.90;;;;;;5016518;28;20022;-77
2022/12/05 03:41:51;;;;;;;49.38;22.95;;;5.20;99.90;;;;;;5016043;28;20517;-75
2022/12/05 03:44:23;;;;;;;55.25;22.92;;;5.20;99.90;;;;;;5016110;28;20026;-76
2022/12/05 03:47:27;;;;;;;50.27;22.30;;;5.20;99.90;;;;;;5016343;28;20068;-76
2022/12/05 03:49:59;;;;;;;60.53;22.77;;;5.20;99.90;;;;;;5014359;28;20073;-77
2022/12/05 03:52:48;;;;;;;49.00;20.65;;;5.20;99.90;;;;;;5015966;28;20124;-76
2022/12/05 03:55:19;;;;;;;57.83;23.00;;;5.20;99.90;;;;;;5012010;28;20026;-77
2022/12/05 03:57:54;;;;;;;54.03;22.23;;;5.30;99.90;;;;;;5015263;28;20033;-77
2022/12/05 04:00:22;;;;;;;54.67;22.45;;;5.30;99.90;;;;;;5015898;28;20033;-77
2022/12/05 04:03:13;;;;;;;56.33;22.70;;;5.30;99.90;;;;;;5016203;28;20018;-77
2022/12/05 04:05:55;;;;;;;54.78;22.88;;;5.20;99.90;;;;;;5015684;28;20109;-77
2022/12/05 04:08:40;;;;;;;50.90;19.83;;;5.30;99.90;;;;;;5015383;28;20058;-74
2022/12/05 04:11:17;;;;;;;49.55;21.23;;;5.30;99.90;;;;;;5015854;28;20455;-76
2022/12/05 04:13:49;;;;;;;49.15;20.77;;;5.30;99.90;;;;;;5014657;28;20029;-77
2022/12/05 04:17:02;;;;;;;51.50;22.45;;;5.30;99.90;;;;;;4998724;28;20037;-78
2022/12/05 04:19:27;;;;;;;48.70;20.45;;;5.30;99.90;;;;;;5014838;28;20112;-76
2022/12/05 04:21:57;;;;;;;49.55;21.45;;;5.30;99.90;;;;;;5015350;28;20439;-76
2022/12/05 04:27:44;;;;;;;46.13;19.88;;;5.40;99.90;;;;;;5013671;28;20026;-77
2022/12/05 04:30:17;;;;;;;50.00;19.48;;;5.30;99.90;;;;;;5013650;28;20033;-77
2022/12/05 04:32:52;;;;;;;42.72;19.27;;;5.30;99.90;;;;;;5014477;28;20045;-76
2022/12/05 04:35:33;;;;;;;42.42;19.08;;;5.40;99.90;;;;;;5015903;28;20030;-77
2022/12/05 04:38:27;;;;;;;47.35;19.88;;;5.40;99.90;;;;;;5015430;28;20044;-76
2022/12/05 04:40:55;;;;;;;;;;;5.40;99.90;;;;;;5016055;28;20107;-77
2022/12/05 04:43:27;;;;;;;41.03;18.15;;;5.40;99.90;;;;;;5015823;28;20398;-76
2022/12/05 04:45:59;;;;;;;41.43;19.03;;;5.40;99.90;;;;;;5015039;28;20083;-77
2022/12/05 04:48:27;;;;;;;43.50;18.80;;;5.40;99.90;;;;;;5014916;28;20261;-75
2022/12/05 04:50:55;;;;;;;44.78;18.67;;;5.40;99.90;;;;;;5014864;28;20116;-76
2022/12/05 04:53:25;;;;;;;44.28;19.48;;;5.40;99.90;;;;;;5014829;28;20042;-76
2022/12/05 04:55:54;;;;;;;40.25;19.02;;;5.50;99.90;;;;;;5014771;28;20025;-75
2022/12/05 04:58:25;;;;;;;47.33;19.40;;;5.50;99.90;;;;;;5014693;28;20040;-77
2022/12/05 05:01:08;;;;;;;38.75;17.65;;;5.50;99.90;;;;;;5015548;28;20069;-77
2022/12/05 05:03:55;;;;;;;39.72;17.60;;;5.50;99.90;;;;;;5030255;28;20022;-76
2022/12/05 05:06:23;;;;;;;47.70;17.73;;;5.50;99.90;;;;;;5030298;28;20033;-76
2022/12/05 05:08:54;;;;;;;39.05;18.17;;;5.50;99.90;;;;;;5013860;28;20038;-77
2022/12/05 05:11:25;;;;;;;47.03;18.27;;;5.50;99.90;;;;;;5014648;28;20025;-76
2022/12/05 05:13:51;;;;;;;39.45;17.48;;;5.40;99.90;;;;;;5013739;28;20032;-76
2022/12/05 05:16:26;;;;;;;41.35;16.52;;;5.40;99.90;;;;;;5014829;28;20026;-76
2022/12/05 05:18:52;;;;;;;37.90;17.55;;;5.50;99.90;;;;;;5014655;28;20034;-75
2022/12/05 05:21:27;;;;;;;37.00;17.40;;;5.50;99.90;;;;;;5014617;28;20022;-77
2022/12/05 05:23:54;;;;;;;39.38;17.00;;;5.50;99.90;;;;;;5014498;28;20335;-76
2022/12/05 05:26:20;;;;;;;41.80;19.52;;;5.50;99.90;;;;;;5014699;28;20026;-76
2022/12/05 05:28:47;;;;;;;41.65;19.27;;;5.50;99.90;;;;;;5013723;28;20048;-77
2022/12/05 05:31:13;;;;;;;36.75;18.00;;;5.40;99.90;;;;;;5013412;28;20075;-77
2022/12/05 05:33:41;;;;;;;37.05;18.27;;;5.40;99.90;;;;;;5014856;28;20116;-77
2022/12/05 05:36:12;;;;;;;39.67;18.92;;;5.40;99.90;;;;;;5013947;28;20331;-75
2022/12/05 05:38:41;;;;;;;36.42;17.13;;;5.30;99.90;;;;;;5015581;28;20034;-77
2022/12/05 05:41:13;;;;;;;38.33;16.90;;;5.30;99.90;;;;;;5015699;28;20037;-77
2022/12/05 05:43:39;;;;;;;41.15;17.60;;;5.30;99.90;;;;;;5030609;28;20053;-75
2022/12/05 05:46:05;;;;;;;39.80;17.52;;;5.40;99.90;;;;;;5015113;28;20022;-76
2022/12/05 05:48:30;;;;;;;36.40;18.42;;;5.40;99.90;;;;;;5015222;28;20033;-76
2022/12/05 05:51:00;;;;;;;37.75;17.90;;;5.40;99.90;;;;;;5014078;28;20469;-76
2022/12/05 05:53:26;;;;;;;36.83;18.35;;;5.40;99.90;;;;;;5013534;28;20030;-76
2022/12/05 05:55:52;;;;;;;34.22;16.88;;;5.40;99.90;;;;;;5015164;28;20512;-77
2022/12/05 05:58:20;;;;;;;37.55;17.20;;;5.40;99.90;;;;;;5015858;28;20080;-76
2022/12/05 06:00:46;;;;;;;38.58;17.40;;;5.40;99.90;;;;;;5015928;28;20083;-76
2022/12/05 06:03:12;;;;;;;38.70;17.38;;;5.40;99.90;;;;;;5015772;28;20025;-76
2022/12/05 06:05:39;;;;;;;40.83;18.00;;;5.40;99.90;;;;;;5015581;28;20022;-77
2022/12/05 06:08:05;;;;;;;40.22;18.35;;;5.50;99.90;;;;;;5015990;28;20041;-76
2022/12/05 06:10:31;;;;;;;38.80;18.05;;;5.50;99.90;;;;;;5016709;28;20030;-77
2022/12/05 06:13:01;;;;;;;40.83;18.95;;;5.40;99.90;;;;;;5017024;28;20462;-77
2022/12/05 06:15:26;;;;;;;42.00;18.02;;;5.40;99.90;;;;;;5016372;28;20089;-75
2022/12/05 06:17:52;;;;;;;40.78;17.48;;;5.50;99.90;;;;;;5015005;28;20312;-75
2022/12/05 06:20:17;;;;;;;44.67;17.65;;;5.50;99.90;;;;;;5017783;28;20105;-78
2022/12/05 06:22:45;;;;;;;38.83;17.30;;;5.50;99.90;;;;;;5019772;28;20439;-76
2022/12/05 06:25:11;;;;;;;33.47;16.50;;;5.50;99.90;;;;;;5035156;28;20443;-75
2022/12/05 06:27:37;;;;;;;35.15;17.25;;;5.40;99.90;;;;;;5019595;28;20029;-76
2022/12/05 06:30:03;;;;;;;44.88;18.00;;;5.50;99.90;;;;;;5019383;28;20416;-77
2022/12/05 06:32:29;;;;;;;41.53;18.27;;;5.50;99.90;;;;;;5020078;28;20049;-77
2022/12/05 06:34:54;;;;;;;39.30;17.70;;;5.50;99.90;;;;;;5018271;28;20030;-76
2022/12/05 06:37:20;;;;;;;35.22;17.48;;;5.50;99.90;;;;;;5017594;28;20447;-77
2022/12/05 06:39:46;;;;;;;38.00;18.38;;;5.50;99.90;;;;;;5017411;28;20044;-76
2022/12/05 06:42:12;;;;;;;41.80;17.45;;;5.50;99.90;;;;;;5017385;28;20447;-75
2022/12/05 06:44:37;;;;;;;37.88;18.00;;;5.60;99.90;;;;;;5017045;28;20018;-75
2022/12/05 06:47:03;;;;;;;39.13;16.75;;;5.60;99.90;;;;;;5017770;28;20037;-76
2022/12/05 06:49:31;;;;;;;41.35;18.38;;;5.60;99.90;;;;;;5016104;28;20036;-75
2022/12/05 06:51:58;;;;;;;42.88;18.05;;;5.60;99.90;;;;;;5017346;28;20033;-75
2022/12/05 06:54:24;;;;;;;36.20;16.48;;;5.60;99.90;;;;;;5016840;28;20054;-75
2022/12/05 06:56:50;;;;;;;35.90;15.73;;;5.60;99.90;;;;;;5016902;28;20037;-75
2022/12/05 06:59:18;;;;;;;35.53;15.40;;;5.60;99.90;;;;;;5016731;28;20022;-74
2022/12/05 07:01:45;;;;;;;43.03;16.02;;;5.60;99.90;;;;;;5015670;28;20451;-75
2022/12/05 07:04:25;;;;;;;39.00;15.35;;;5.60;99.90;;;;;;5016972;28;20030;-75
2022/12/05 07:06:52;;;;;;;34.60;16.20;;;5.60;99.90;;;;;;5015731;28;20025;-74
2022/12/05 07:09:20;;;;;;;32.90;15.73;;;5.60;99.90;;;;;;5016466;28;20030;-75
2022/12/05 07:11:47;;;;;;;33.70;15.88;;;5.60;99.90;;;;;;5016789;28;20026;-75
2022/12/05 07:14:13;;;;;;;39.78;15.77;;;5.60;99.90;;;;;;5016881;28;20030;-74
2022/12/05 07:16:43;;;;;;;31.88;15.05;;;5.60;99.90;;;;;;5016855;28;20018;-75
2022/12/05 07:19:11;;;;;;;31.70;15.45;;;5.60;99.90;;;;;;5015327;28;20153;-76
2022/12/05 07:21:39;;;;;;;30.92;14.88;;;5.60;99.90;;;;;;5016367;28;20026;-75
2022/12/05 07:24:07;;;;;;;28.60;14.43;;;5.60;99.90;;;;;;5016601;28;20029;-74
2022/12/05 07:26:33;;;;;;;30.35;14.38;;;5.60;99.90;;;;;;5015184;28;20026;-75
2022/12/05 07:29:03;;;;;;;32.92;15.10;;;5.70;99.90;;;;;;5016468;28;20469;-75
2022/12/05 07:31:29;;;;;;;30.95;14.88;;;5.70;99.90;;;;;;5015670;28;20092;-74
2022/12/05 07:33:55;;;;;;;32.30;15.52;;;5.60;99.90;;;;;;5015265;28;20041;-72
2022/12/05 07:36:22;;;;;;;39.42;15.90;;;5.70;99.90;;;;;;5016636;28;20101;-75
2022/12/05 07:38:53;;;;;;;27.20;14.65;;;5.70;99.90;;;;;;5016045;28;20072;-75
2022/12/05 07:41:22;;;;;;;31.95;14.80;;;5.70;99.90;;;;;;5015180;28;20026;-75
2022/12/05 07:43:51;;;;;;;27.38;14.07;;;5.70;99.90;;;;;;5015343;28;20033;-74
2022/12/05 07:46:17;;;;;;;28.05;14.05;;;5.70;99.90;;;;;;5015654;28;20045;-75
2022/12/05 07:48:45;;;;;;;26.95;13.07;;;5.70;99.90;;;;;;5015032;28;20030;-74
2022/12/05 07:51:10;;;;;;;33.10;13.60;;;5.60;99.90;;;;;;5015832;28;20037;-74
2022/12/05 07:53:43;;;;;;;25.55;13.77;;;5.60;99.90;;;;;;5014778;28;20038;-74
2022/12/05 07:56:11;;;;;;;19.20;10.90;;;5.40;99.90;;;;;;5016356;28;20037;-73
2022/12/05 07:58:39;;;;;;;22.50;12.25;;;5.40;99.90;;;;;;5015568;28;20044;-72
2022/12/05 08:01:11;;;;;;;24.73;13.02;;;5.30;99.90;;;;;;5015652;28;20107;-73
2022/12/05 08:03:38;;;;;;;23.50;11.35;;;5.40;99.90;;;;;;5016005;28;20018;-71
2022/12/05 08:06:06;;;;;;;19.48;11.45;;;5.40;99.90;;;;;;5015832;28;20029;-74
2022/12/05 08:08:32;;;;;;;19.60;11.13;;;5.30;99.90;;;;;;5031078;28;20030;-72
2022/12/05 08:11:02;;;;;;;21.58;11.73;;;5.30;99.90;;;;;;5015990;28;20117;-72
2022/12/05 08:13:29;;;;;;;21.20;12.05;;;5.30;99.90;;;;;;5015758;28;20091;-72
2022/12/05 08:15:54;;;;;;;20.00;11.45;;;5.30;99.90;;;;;;5015399;28;20022;-71
2022/12/05 08:18:20;;;;;;;20.30;11.10;;;5.30;99.90;;;;;;5015189;28;20426;-71
2022/12/05 08:20:48;;;;;;;18.30;10.50;;;5.20;99.90;;;;;;5015494;28;20431;-72
2022/12/05 08:23:16;;;;;;;19.70;10.00;;;5.20;99.90;;;;;;5014669;28;20022;-74
2022/12/05 08:25:42;;;;;;;18.40;11.15;;;5.10;99.90;;;;;;5015130;28;20025;-72
2022/12/05 08:28:10;;;;;;;20.27;10.85;;;5.10;99.90;;;;;;5015671;28;20318;-72
2022/12/05 08:30:35;;;;;;;21.65;10.80;;;5.20;99.90;;;;;;5014965;28;20037;-72
2022/12/05 08:33:01;;;;;;;21.08;10.98;;;5.10;99.90;;;;;;5013896;28;20061;-73
2022/12/05 08:35:29;;;;;;;24.52;11.27;;;5.10;99.90;;;;;;5014930;28;20065;-73
2022/12/05 08:37:55;;;;;;;21.80;11.88;;;5.10;99.90;;;;;;5015342;28;20101;-73
2022/12/05 08:40:23;;;;;;;16.35;10.20;;;5.10;99.90;;;;;;5014955;28;20057;-73
2022/12/05 08:42:51;;;;;;;24.17;11.68;;;5.10;99.90;;;;;;5014737;28;20025;-73
2022/12/05 08:45:17;;;;;;;17.20;9.68;;;5.00;99.90;;;;;;5015262;28;20055;-73
2022/12/05 08:47:45;;;;;;;21.75;10.07;;;5.10;99.90;;;;;;5014935;28;20026;-73
2022/12/05 08:50:10;;;;;;;17.60;10.30;;;5.00;99.90;;;;;;5015534;28;20022;-73
2022/12/05 08:52:36;;;;;;;19.42;9.18;;;5.10;99.90;;;;;;5013862;28;20022;-72
2022/12/05 08:55:02;;;;;;;13.25;8.75;;;5.00;99.90;;;;;;5014932;28;20021;-71
2022/12/05 08:57:30;;;;;;;14.95;8.95;;;5.00;99.90;;;;;;5014010;28;20053;-71
2022/12/05 08:59:57;;;;;;;16.27;9.32;;;4.90;99.90;;;;;;5014189;28;20049;-72
2022/12/05 09:02:23;;;;;;;21.95;9.73;;;4.90;99.90;;;;;;5014851;28;20041;-73
2022/12/05 09:04:52;;;;;;;16.10;9.05;;;4.90;99.90;;;;;;5014847;28;20018;-73
2022/12/05 09:07:22;;;;;;;18.92;9.02;;;4.90;99.90;;;;;;5014513;28;20021;-71
2022/12/05 09:09:47;;;;;;;16.83;9.70;;;4.80;99.90;;;;;;5015102;28;20168;-73
2022/12/05 09:12:15;;;;;;;14.77;9.23;;;4.70;99.90;;;;;;5014348;28;20080;-74
2022/12/05 09:14:43;;;;;;;19.35;9.07;;;4.60;99.90;;;;;;5015256;28;20037;-73
2022/12/05 09:17:09;;;;;;;17.95;9.50;;;4.70;99.90;;;;;;5015358;28;20417;-73
2022/12/05 09:19:35;;;;;;;17.70;9.13;;;4.60;99.90;;;;;;5014540;28;20061;-73
2022/12/05 09:22:01;;;;;;;15.00;9.07;;;4.60;99.90;;;;;;5014646;28;20026;-73
2022/12/05 09:24:26;;;;;;;17.92;9.05;;;4.70;99.90;;;;;;5014592;28;20025;-73
2022/12/05 09:26:54;;;;;;;16.63;9.75;;;4.70;99.90;;;;;;5014283;28;20506;-73
2022/12/05 09:29:24;;;;;;;18.33;9.15;;;4.70;99.90;;;;;;5014344;28;20104;-71
2022/12/05 09:31:51;;;;;;;36.33;14.77;;;4.70;99.90;;;;;;5014452;28;20018;-70
2022/12/05 09:34:19;;;;;;;15.63;9.35;;;4.70;99.90;;;;;;5014237;28;20116;-73
2022/12/05 09:36:44;;;;;;;14.23;9.15;;;4.80;99.90;;;;;;5014596;28;20073;-72
2022/12/05 09:39:10;;;;;;;17.52;8.70;;;4.80;99.90;;;;;;5014473;28;20328;-72
2022/12/05 09:42:03;;;;;;;18.30;9.07;;;4.80;99.90;;;;;;5014275;28;20373;-72
2022/12/05 09:44:46;;;;;;;18.48;9.73;;;4.80;99.90;;;;;;5014693;28;20049;-72
2022/12/05 09:47:22;;;;;;;17.02;9.88;;;4.80;99.90;;;;;;5014231;28;20029;-72
2022/12/05 09:50:20;;;;;;;13.60;8.95;;;4.80;99.90;;;;;;5029852;28;20030;-72
2022/12/05 09:53:12;;;;;;;15.32;8.80;;;4.80;99.90;;;;;;5014306;28;20408;-72
2022/12/05 09:56:00;;;;;;;16.73;9.27;;;4.80;99.90;;;;;;5017133;28;20101;-72
2022/12/05 09:58:46;;;;;;;21.02;10.07;;;4.70;99.90;;;;;;5018167;28;20026;-72
2022/12/05 10:01:42;;;;;;;19.45;9.55;;;4.70;99.90;;;;;;5017249;28;20017;-72
2022/12/05 10:04:42;;;;;;;13.23;8.98;;;4.80;99.90;;;;;;5017598;28;20030;-71
2022/12/05 10:07:24;;;;;;;16.55;8.40;;;4.70;99.90;;;;;;5032770;28;20157;-71
2022/12/05 10:10:26;;;;;;;16.88;9.65;;;4.80;99.90;;;;;;5018028;28;20117;-72
2022/12/05 10:13:28;;;;;;;20.80;10.27;;;4.70;99.90;;;;;;5019652;28;20026;-73
2022/12/05 10:16:09;;;;;;;16.35;8.27;;;4.70;99.90;;;;;;5000530;28;20132;-71
2022/12/05 10:18:41;;;;;;;17.08;9.02;;;4.80;99.90;;;;;;5016569;28;20030;-70
2022/12/05 10:21:09;;;;;;;18.17;10.13;;;4.80;99.90;;;;;;5017347;28;20046;-72
2022/12/05 10:23:54;;;;;;;16.27;8.60;;;4.80;99.90;;;;;;5032926;28;20022;-72
2022/12/05 10:26:23;;;;;;;15.77;8.93;;;4.90;99.90;;;;;;5017955;28;20488;-72
2022/12/05 10:28:51;;;;;;;19.38;9.63;;;4.80;99.90;;;;;;5017797;28;20030;-72
2022/12/05 10:31:25;;;;;;;16.17;9.65;;;4.80;99.90;;;;;;5017409;28;20029;-71
2022/12/05 10:34:03;;;;;;;13.55;8.88;;;4.80;99.90;;;;;;5016564;28;20458;-72
2022/12/05 10:36:29;;;;;;;15.35;8.93;;;4.80;99.90;;;;;;5016516;28;20044;-72
2022/12/05 10:38:58;;;;;;;16.63;8.85;;;4.80;99.90;;;;;;5016916;28;20026;-72
2022/12/05 10:41:27;;;;;;;14.10;8.45;;;4.80;99.90;;;;;;5032360;28;20030;-72
2022/12/05 10:43:53;;;;;;;17.20;8.98;;;4.70;99.90;;;;;;5016779;28;20018;-72
2022/12/05 10:46:19;;;;;;;15.65;8.27;;;4.70;99.90;;;;;;5016290;28;20022;-73
2022/12/05 10:48:45;;;;;;;18.85;9.50;;;4.80;99.90;;;;;;5032673;28;20181;-72
2022/12/05 10:51:17;;;;;;;14.30;8.60;;;4.80;99.90;;;;;;5016954;28;20408;-72
2022/12/05 10:53:45;;;;;;;;;;;4.80;99.90;;;;;;5016477;28;20137;-72
2022/12/05 10:56:43;;;;;;;16.08;8.88;;;4.80;99.90;;;;;;5016998;28;20373;-72
2022/12/05 10:59:17;;;;;;;17.90;8.68;;;4.80;99.90;;;;;;5016686;28;20031;-72
2022/12/05 11:01:49;;;;;;;15.65;8.48;;;4.80;99.90;;;;;;5015718;28;20478;-72
2022/12/05 11:04:28;;;;;;;15.37;8.63;;;4.80;99.90;;;;;;5015811;28;20468;-72
2022/12/05 11:07:02;;;;;;;14.45;7.85;;;4.80;99.90;;;;;;5017004;28;20264;-72
2022/12/05 11:09:30;;;;;;;12.50;7.28;;;4.90;99.90;;;;;;5016414;28;20037;-73
2022/12/05 11:12:24;;;;;;;12.50;7.30;;;4.90;99.90;;;;;;5017258;28;20077;-74
2022/12/05 11:14:58;;;;;;;12.30;7.30;;;4.90;99.90;;;;;;5017217;28;20044;-72
2022/12/05 11:17:30;;;;;;;11.73;7.00;;;4.90;99.90;;;;;;5019405;28;20049;-72
2022/12/05 11:19:58;;;;;;;13.93;9.00;;;5.00;99.90;;;;;;5016913;28;20093;-72
2022/12/05 11:22:34;;;;;;;16.08;8.30;;;5.00;99.90;;;;;;5016668;28;20030;-73
2022/12/05 11:25:03;;;;;;;13.20;7.55;;;4.90;99.90;;;;;;5016027;28;20335;-72
2022/12/05 11:27:31;;;;;;;13.02;8.43;;;4.90;99.90;;;;;;5016251;28;20026;-73
2022/12/05 11:30:12;;;;;;;16.38;8.70;;;4.90;99.90;;;;;;5014438;28;20033;-72
2022/12/05 11:32:38;;;;;;;12.32;8.20;;;4.90;99.90;;;;;;5031312;28;20422;-72
2022/12/05 11:35:11;;;;;;;10.27;7.05;;;4.90;99.90;;;;;;5015578;28;20065;-72
2022/12/05 11:37:59;;;;;;;14.05;8.95;;;4.90;99.90;;;;;;5031122;28;20029;-71
2022/12/05 11:40:46;;;;;;;11.93;8.15;;;4.90;99.90;;;;;;5015779;28;20030;-70
2022/12/05 11:43:44;;;;;;;16.58;9.10;;;4.90;99.90;;;;;;5031098;28;20022;-69
2022/12/05 11:46:36;;;;;;;13.90;8.65;;;4.90;99.90;;;;;;5014975;28;20037;-72
2022/12/05 11:49:28;;;;;;;12.52;7.88;;;4.80;99.90;;;;;;5014528;28;20431;-72
2022/12/05 11:52:15;;;;;;;13.85;8.07;;;4.80;99.90;;;;;;5015452;28;20041;-72
2022/12/05 11:55:09;;;;;;;11.05;7.00;;;4.90;99.90;;;;;;5030672;28;20371;-72
2022/12/05 11:57:50;;;;;;;16.13;7.35;;;4.90;99.90;;;;;;5014985;28;20460;-72
2022/12/05 12:00:39;;;;;;;12.77;7.65;;;5.00;99.90;;;;;;5015183;28;20026;-71
2022/12/05 12:03:29;;;;;;;15.77;8.27;;;4.90;99.90;;;;;;5014513;28;20431;-72
2022/12/05 12:06:16;;;;;;;13.52;7.47;;;5.00;99.90;;;;;;5015606;28;20458;-71
2022/12/05 12:09:20;;;;;;;10.80;6.05;;;5.10;99.90;;;;;;5015949;28;20034;-73
2022/12/05 12:12:02;;;;;;;7.30;6.13;;;5.00;99.90;;;;;;5004887;28;20038;-71
2022/12/05 12:14:55;;;;;;;14.90;8.20;;;5.00;99.90;;;;;;5015825;28;20080;-71
2022/12/05 12:17:43;;;;;;;13.80;6.80;;;5.10;99.90;;;;;;5005096;28;20048;-72
2022/12/05 12:20:20;;;;;;;7.68;5.93;;;5.10;99.90;;;;;;5015389;28;20355;-72
2022/12/05 12:23:07;;;;;;;9.20;6.22;;;5.00;99.90;;;;;;5015351;28;20480;-71
2022/12/05 12:26:05;;;;;;;7.18;5.57;;;5.10;99.90;;;;;;5014942;28;20064;-72
2022/12/05 12:28:40;;;;;;;9.70;6.13;;;5.10;99.90;;;;;;5014794;28;20439;-71
2022/12/05 12:31:28;;;;;;;7.15;5.60;;;5.10;99.90;;;;;;5030098;28;20116;-72
2022/12/05 12:33:57;;;;;;;7.15;5.43;;;5.20;99.90;;;;;;5014703;28;20075;-71
2022/12/05 12:36:32;;;;;;;7.35;5.72;;;5.20;99.90;;;;;;5014735;28;20037;-71
2022/12/05 12:39:16;;;;;;;8.68;5.68;;;5.10;99.90;;;;;;5014719;28;20025;-72
2022/12/05 12:42:24;;;;;;;6.13;5.32;;;5.10;99.90;;;;;;5014876;28;20124;-71
2022/12/05 12:45:05;;;;;;;9.02;5.82;;;5.20;99.90;;;;;;4993370;28;20105;-71
2022/12/05 12:47:38;;;;;;;8.95;5.93;;;5.20;99.90;;;;;;4993170;28;20033;-71
2022/12/05 12:50:10;;;;;;;7.15;5.32;;;5.20;99.90;;;;;;4976938;28;20038;-72
2022/12/05 12:53:10;;;;;;;6.25;5.35;;;5.20;99.90;;;;;;4976848;28;20046;-69
2022/12/05 12:55:50;;;;;;;9.50;6.60;;;5.20;99.90;;;;;;4993131;28;20054;-72
2022/12/05 12:58:29;;;;;;;11.85;6.60;;;5.10;99.90;;;;;;4993064;28;20045;-72
2022/12/05 13:01:16;;;;;;;13.10;6.75;;;5.10;99.90;;;;;;4976592;28;20045;-72
2022/12/05 13:03:48;;;;;;;13.73;7.43;;;5.20;99.90;;;;;;4976704;28;20528;-70
2022/12/05 13:06:16;;;;;;;;;;;5.20;99.90;;;;;;4977347;28;20117;-72
2022/12/05 13:08:55;;;;;;;10.90;6.40;;;5.10;99.90;;;;;;4976505;28;19909;-71
2022/12/05 13:11:26;;;;;;;13.43;7.32;;;5.00;99.90;;;;;;4976946;28;20162;-71
2022/12/05 13:13:56;;;;;;;10.38;6.70;;;5.00;99.90;;;;;;4992753;28;20084;-71